sensor_id;sensor_type;location;lat;lon;timestamp;pressure;altitude;pressure_sealevel;temperature;humidity
34712;BME280;20941;42.408;25.634;2022-12-08T00:01:27;99536.78;;;9.68;100.00
34712;BME280;20941;42.408;25.634;2022-12-08T00:03:53;99550.53;;;9.69;100.00
34712;BME280;20941;42.408;25.634;2022-12-08T00:06:43;99538.75;;;9.67;100.00
34712;BME280;20941;42.408;25.634;2022-12-08T00:09:33;99528.22;;;9.59;100.00
34712;BME280;20941;42.408;25.634;2022-12-08T00:12:07;99529.97;;;9.55;100.00
34712;BME280;20941;42.408;25.634;2022-12-08T00:14:39;99541.19;;;9.55;100.00
34712;BME280;20941;42.408;25.634;2022-12-08T00:17:05;99533.91;;;9.54;99.86
34712;BME280;20941;42.408;25.634;2022-12-08T00:19:32;99542.69;;;9.66;99.51
34712;BME280;20941;42.408;25.634;2022-12-08T00:21:58;99544.38;;;9.67;99.99
34712;BME280;20941;42.408;25.634;2022-12-08T00:24:29;99523.75;;;9.58;98.61
34712;BME280;20941;42.408;25.634;2022-12-08T00:26:55;99537.72;;;9.63;97.40
34712;BME280;20941;42.408;25.634;2022-12-08T00:29:20;99539.38;;;9.64;97.78
34712;BME280;20941;42.408;25.634;2022-12-08T00:31:46;99557.13;;;9.78;97.32
34712;BME280;20941;42.408;25.634;2022-12-08T00:34:12;99545.91;;;9.78;97.76
34712;BME280;20941;42.408;25.634;2022-12-08T00:36:38;99516.28;;;9.67;98.42
34712;BME280;20941;42.408;25.634;2022-12-08T00:39:04;99553.31;;;9.88;98.85
34712;BME280;20941;42.408;25.634;2022-12-08T00:41:29;99543.44;;;9.91;98.84
34712;BME280;20941;42.408;25.634;2022-12-08T00:44:16;99535.06;;;9.86;96.25
34712;BME280;20941;42.408;25.634;2022-12-08T00:46:43;99525.16;;;9.74;96.83
34712;BME280;20941;42.408;25.634;2022-12-08T00:49:09;99551.44;;;9.84;95.55
34712;BME280;20941;42.408;25.634;2022-12-08T00:51:35;99551.50;;;9.78;95.35
34712;BME280;20941;42.408;25.634;2022-12-08T00:54:02;99551.44;;;9.84;95.46
34712;BME280;20941;42.408;25.634;2022-12-08T00:56:27;99521.41;;;9.65;94.41
34712;BME280;20941;42.408;25.634;2022-12-08T00:58:53;99534.59;;;9.64;93.91
34712;BME280;20941;42.408;25.634;2022-12-08T01:01:18;99529.59;;;9.61;94.38
34712;BME280;20941;42.408;25.634;2022-12-08T01:03:44;99534.97;;;9.58;94.33
34712;BME280;20941;42.408;25.634;2022-12-08T01:06:10;99546.13;;;9.63;95.74
34712;BME280;20941;42.408;25.634;2022-12-08T01:08:36;99523.22;;;9.56;97.16
34712;BME280;20941;42.408;25.634;2022-12-08T01:11:11;99525.44;;;9.59;97.36
34712;BME280;20941;42.408;25.634;2022-12-08T01:13:37;99530.97;;;9.64;98.17
34712;BME280;20941;42.408;25.634;2022-12-08T01:16:03;99545.91;;;9.78;99.21
34712;BME280;20941;42.408;25.634;2022-12-08T01:18:29;99532.75;;;9.74;100.00
34712;BME280;20941;42.408;25.634;2022-12-08T01:20:54;99541.31;;;9.83;100.00
34712;BME280;20941;42.408;25.634;2022-12-08T01:23:27;99545.03;;;9.78;100.00
34712;BME280;20941;42.408;25.634;2022-12-08T01:25:52;99538.19;;;9.84;99.40
34712;BME280;20941;42.408;25.634;2022-12-08T01:28:18;99538.97;;;9.90;95.75
34712;BME280;20941;42.408;25.634;2022-12-08T01:30:43;99504.00;;;9.63;94.06
34712;BME280;20941;42.408;25.634;2022-12-08T01:33:09;99510.72;;;9.48;94.00
34712;BME280;20941;42.408;25.634;2022-12-08T01:35:35;99520.41;;;9.56;94.28
34712;BME280;20941;42.408;25.634;2022-12-08T01:38:00;99537.06;;;9.66;94.57
34712;BME280;20941;42.408;25.634;2022-12-08T01:40:26;99530.09;;;9.63;95.41
34712;BME280;20941;42.408;25.634;2022-12-08T01:42:51;99540.44;;;9.68;100.00
34712;BME280;20941;42.408;25.634;2022-12-08T01:45:21;99551.44;;;9.64;100.00
34712;BME280;20941;42.408;25.634;2022-12-08T01:47:49;99549.69;;;9.50;100.00
34712;BME280;20941;42.408;25.634;2022-12-08T01:50:18;99561.00;;;9.25;100.00
34712;BME280;20941;42.408;25.634;2022-12-08T01:53:15;99552.41;;;9.17;100.00
34712;BME280;20941;42.408;25.634;2022-12-08T01:58:27;99548.69;;;9.02;100.00
34712;BME280;20941;42.408;25.634;2022-12-08T02:00:54;99541.31;;;8.87;100.00
34712;BME280;20941;42.408;25.634;2022-12-08T02:03:27;99532.06;;;8.87;100.00
34712;BME280;20941;42.408;25.634;2022-12-08T02:05:56;99544.56;;;8.94;100.00
34712;BME280;20941;42.408;25.634;2022-12-08T02:08:22;99528.56;;;8.95;100.00
34712;BME280;20941;42.408;25.634;2022-12-08T02:10:50;99505.66;;;8.88;100.00
34712;BME280;20941;42.408;25.634;2022-12-08T02:13:18;99542.41;;;9.10;100.00
34712;BME280;20941;42.408;25.634;2022-12-08T02:16:16;99535.59;;;9.17;100.00
34712;BME280;20941;42.408;25.634;2022-12-08T02:35:26;99509.84;;;9.47;100.00
34712;BME280;20941;42.408;25.634;2022-12-08T02:43:06;99524.97;;;9.52;100.00
34712;BME280;20941;42.408;25.634;2022-12-08T02:45:43;99526.84;;;9.56;100.00
34712;BME280;20941;42.408;25.634;2022-12-08T02:48:13;99530.88;;;9.50;100.00
34712;BME280;20941;42.408;25.634;2022-12-08T02:50:38;99529.28;;;9.44;100.00
34712;BME280;20941;42.408;25.634;2022-12-08T02:53:04;99527.31;;;9.44;100.00
34712;BME280;20941;42.408;25.634;2022-12-08T02:58:28;99534.53;;;9.51;100.00
34712;BME280;20941;42.408;25.634;2022-12-08T03:03:35;99508.66;;;9.35;100.00
34712;BME280;20941;42.408;25.634;2022-12-08T03:09:28;99538.00;;;9.42;100.00
34712;BME280;20941;42.408;25.634;2022-12-08T03:12:08;99538.56;;;9.44;100.00
34712;BME280;20941;42.408;25.634;2022-12-08T03:14:38;99544.09;;;9.50;100.00
34712;BME280;20941;42.408;25.634;2022-12-08T03:17:05;99524.59;;;9.39;100.00
34712;BME280;20941;42.408;25.634;2022-12-08T03:19:35;99540.97;;;9.51;100.00
34712;BME280;20941;42.408;25.634;2022-12-08T03:22:04;99535.66;;;9.50;100.00
34712;BME280;20941;42.408;25.634;2022-12-08T03:24:39;99534.31;;;9.47;100.00
34712;BME280;20941;42.408;25.634;2022-12-08T03:27:12;99520.25;;;9.28;100.00
34712;BME280;20941;42.408;25.634;2022-12-08T03:29:39;99537.94;;;9.28;100.00
34712;BME280;20941;42.408;25.634;2022-12-08T03:32:15;99551.50;;;9.40;100.00
34712;BME280;20941;42.408;25.634;2022-12-08T03:34:45;99485.59;;;8.99;100.00
34712;BME280;20941;42.408;25.634;2022-12-08T03:37:12;99559.66;;;9.42;100.00
34712;BME280;20941;42.408;25.634;2022-12-08T03:39:38;99537.25;;;9.18;100.00
34712;BME280;20941;42.408;25.634;2022-12-08T03:42:04;99536.63;;;9.21;100.00
34712;BME280;20941;42.408;25.634;2022-12-08T03:44:29;99555.03;;;9.32;100.00
34712;BME280;20941;42.408;25.634;2022-12-08T03:46:55;99527.72;;;9.19;100.00
34712;BME280;20941;42.408;25.634;2022-12-08T03:49:20;99541.44;;;9.20;100.00
34712;BME280;20941;42.408;25.634;2022-12-08T03:51:46;99522.53;;;9.07;100.00
34712;BME280;20941;42.408;25.634;2022-12-08T03:54:12;99534.44;;;9.18;100.00
34712;BME280;20941;42.408;25.634;2022-12-08T03:56:38;99549.91;;;9.34;100.00
34712;BME280;20941;42.408;25.634;2022-12-08T03:59:05;99546.13;;;9.44;100.00
34712;BME280;20941;42.408;25.634;2022-12-08T04:01:31;99539.06;;;9.46;100.00
34712;BME280;20941;42.408;25.634;2022-12-08T04:03:57;99522.84;;;9.43;100.00
34712;BME280;20941;42.408;25.634;2022-12-08T04:06:23;99544.53;;;9.57;100.00
34712;BME280;20941;42.408;25.634;2022-12-08T04:08:49;99530.38;;;9.48;100.00
34712;BME280;20941;42.408;25.634;2022-12-08T04:11:15;99533.41;;;9.52;100.00
34712;BME280;20941;42.408;25.634;2022-12-08T04:13:44;99547.50;;;9.66;100.00
34712;BME280;20941;42.408;25.634;2022-12-08T04:16:18;99545.59;;;9.61;100.00
34712;BME280;20941;42.408;25.634;2022-12-08T04:18:44;99550.59;;;9.64;100.00
34712;BME280;20941;42.408;25.634;2022-12-08T04:21:10;99549.97;;;9.67;100.00
34712;BME280;20941;42.408;25.634;2022-12-08T04:23:36;99547.72;;;9.69;100.00
34712;BME280;20941;42.408;25.634;2022-12-08T04:26:01;99545.75;;;9.51;100.00
34712;BME280;20941;42.408;25.634;2022-12-08T04:28:27;99545.97;;;9.35;100.00
34712;BME280;20941;42.408;25.634;2022-12-08T04:30:54;99556.31;;;9.40;100.00
34712;BME280;20941;42.408;25.634;2022-12-08T04:33:20;99532.25;;;9.34;100.00
34712;BME280;20941;42.408;25.634;2022-12-08T04:35:45;99549.47;;;9.46;100.00
34712;BME280;20941;42.408;25.634;2022-12-08T04:38:11;99548.19;;;9.38;100.00
34712;BME280;20941;42.408;25.634;2022-12-08T04:40:37;99531.47;;;9.28;100.00
34712;BME280;20941;42.408;25.634;2022-12-08T04:43:03;99547.97;;;9.35;100.00
34712;BME280;20941;42.408;25.634;2022-12-08T04:45:29;99560.47;;;9.42;100.00
34712;BME280;20941;42.408;25.634;2022-12-08T04:47:54;99560.09;;;9.49;100.00
34712;BME280;20941;42.408;25.634;2022-12-08T04:50:20;99557.00;;;9.51;100.00
34712;BME280;20941;42.408;25.634;2022-12-08T04:52:46;99563.66;;;9.55;100.00
34712;BME280;20941;42.408;25.634;2022-12-08T04:55:11;99550.28;;;9.46;100.00
34712;BME280;20941;42.408;25.634;2022-12-08T04:57:37;99559.72;;;9.56;100.00
34712;BME280;20941;42.408;25.634;2022-12-08T05:00:04;99559.78;;;9.51;100.00
34712;BME280;20941;42.408;25.634;2022-12-08T05:02:30;99576.63;;;9.51;100.00
34712;BME280;20941;42.408;25.634;2022-12-08T05:04:57;99560.00;;;9.35;100.00
34712;BME280;20941;42.408;25.634;2022-12-08T05:07:22;99555.75;;;9.38;100.00
34712;BME280;20941;42.408;25.634;2022-12-08T05:09:48;99564.81;;;9.35;100.00
34712;BME280;20941;42.408;25.634;2022-12-08T05:12:13;99559.47;;;9.33;100.00
34712;BME280;20941;42.408;25.634;2022-12-08T05:14:39;99570.03;;;9.41;100.00
34712;BME280;20941;42.408;25.634;2022-12-08T05:17:04;99581.63;;;9.54;100.00
34712;BME280;20941;42.408;25.634;2022-12-08T05:19:30;99566.53;;;9.50;100.00
34712;BME280;20941;42.408;25.634;2022-12-08T05:21:55;99556.91;;;9.37;100.00
34712;BME280;20941;42.408;25.634;2022-12-08T05:24:21;99579.59;;;9.40;100.00
34712;BME280;20941;42.408;25.634;2022-12-08T05:26:46;99568.19;;;9.31;100.00
34712;BME280;20941;42.408;25.634;2022-12-08T05:29:12;99571.00;;;9.31;100.00
34712;BME280;20941;42.408;25.634;2022-12-08T05:31:37;99575.63;;;9.41;100.00
34712;BME280;20941;42.408;25.634;2022-12-08T05:34:04;99583.00;;;9.56;100.00
34712;BME280;20941;42.408;25.634;2022-12-08T05:36:30;99562.50;;;9.37;100.00
34712;BME280;20941;42.408;25.634;2022-12-08T05:38:56;99583.84;;;9.57;100.00
34712;BME280;20941;42.408;25.634;2022-12-08T05:41:22;99579.91;;;9.58;100.00
34712;BME280;20941;42.408;25.634;2022-12-08T05:43:48;99607.81;;;9.68;100.00
34712;BME280;20941;42.408;25.634;2022-12-08T05:46:14;99603.88;;;9.69;100.00
34712;BME280;20941;42.408;25.634;2022-12-08T05:48:40;99604.56;;;9.61;100.00
34712;BME280;20941;42.408;25.634;2022-12-08T05:51:08;99590.59;;;9.56;100.00
34712;BME280;20941;42.408;25.634;2022-12-08T05:53:37;99601.06;;;9.69;100.00
34712;BME280;20941;42.408;25.634;2022-12-08T05:56:03;99610.56;;;9.73;100.00
34712;BME280;20941;42.408;25.634;2022-12-08T05:58:28;99584.81;;;9.66;100.00
34712;BME280;20941;42.408;25.634;2022-12-08T06:00:54;99604.94;;;9.73;100.00
34712;BME280;20941;42.408;25.634;2022-12-08T06:03:19;99590.66;;;9.70;100.00
34712;BME280;20941;42.408;25.634;2022-12-08T06:05:46;99595.47;;;9.69;100.00
34712;BME280;20941;42.408;25.634;2022-12-08T06:08:12;99581.78;;;9.62;100.00
34712;BME280;20941;42.408;25.634;2022-12-08T06:10:41;99593.69;;;9.73;100.00
34712;BME280;20941;42.408;25.634;2022-12-08T06:13:07;99602.66;;;9.75;100.00
34712;BME280;20941;42.408;25.634;2022-12-08T06:15:34;99613.81;;;9.80;100.00
34712;BME280;20941;42.408;25.634;2022-12-08T06:18:00;99585.34;;;9.68;100.00
34712;BME280;20941;42.408;25.634;2022-12-08T06:20:26;99600.41;;;9.77;100.00
34712;BME280;20941;42.408;25.634;2022-12-08T06:22:53;99601.44;;;9.82;100.00
34712;BME280;20941;42.408;25.634;2022-12-08T06:25:19;99606.53;;;9.79;100.00
34712;BME280;20941;42.408;25.634;2022-12-08T06:27:44;99621.66;;;9.84;100.00
34712;BME280;20941;42.408;25.634;2022-12-08T06:30:10;99621.78;;;9.73;100.00
34712;BME280;20941;42.408;25.634;2022-12-08T06:32:36;99606.31;;;9.57;100.00
34712;BME280;20941;42.408;25.634;2022-12-08T06:35:01;99618.59;;;9.61;100.00
34712;BME280;20941;42.408;25.634;2022-12-08T06:37:27;99611.25;;;9.65;100.00
34712;BME280;20941;42.408;25.634;2022-12-08T06:39:53;99598.63;;;9.62;100.00
34712;BME280;20941;42.408;25.634;2022-12-08T06:42:18;99603.25;;;9.72;100.00
34712;BME280;20941;42.408;25.634;2022-12-08T06:45:02;99618.47;;;9.71;98.84
34712;BME280;20941;42.408;25.634;2022-12-08T06:47:28;99604.25;;;9.62;99.52
34712;BME280;20941;42.408;25.634;2022-12-08T06:49:53;99633.03;;;9.73;100.00
34712;BME280;20941;42.408;25.634;2022-12-08T06:52:19;99607.81;;;9.68;99.92
34712;BME280;20941;42.408;25.634;2022-12-08T06:54:44;99604.41;;;9.71;99.52
34712;BME280;20941;42.408;25.634;2022-12-08T06:57:10;99641.13;;;9.94;100.00
34712;BME280;20941;42.408;25.634;2022-12-08T06:59:35;99611.47;;;9.69;100.00
34712;BME280;20941;42.408;25.634;2022-12-08T07:02:02;99628.03;;;9.70;100.00
34712;BME280;20941;42.408;25.634;2022-12-08T07:04:30;99646.22;;;9.92;100.00
34712;BME280;20941;42.408;25.634;2022-12-08T07:06:55;99644.50;;;9.96;100.00
34712;BME280;20941;42.408;25.634;2022-12-08T07:09:21;99637.41;;;9.79;100.00
34712;BME280;20941;42.408;25.634;2022-12-08T07:11:46;99667.41;;;9.84;100.00
34712;BME280;20941;42.408;25.634;2022-12-08T07:14:12;99662.69;;;9.79;100.00
34712;BME280;20941;42.408;25.634;2022-12-08T07:16:38;99654.13;;;9.71;100.00
34712;BME280;20941;42.408;25.634;2022-12-08T07:19:04;99628.16;;;9.60;100.00
34712;BME280;20941;42.408;25.634;2022-12-08T07:21:30;99668.94;;;9.76;100.00
34712;BME280;20941;42.408;25.634;2022-12-08T07:23:57;99655.81;;;9.91;100.00
34712;BME280;20941;42.408;25.634;2022-12-08T07:26:23;99659.34;;;9.96;100.00
34712;BME280;20941;42.408;25.634;2022-12-08T07:28:49;99657.41;;;9.97;100.00
34712;BME280;20941;42.408;25.634;2022-12-08T07:31:20;99673.72;;;10.14;100.00
34712;BME280;20941;42.408;25.634;2022-12-08T07:34:04;99659.91;;;10.18;100.00
34712;BME280;20941;42.408;25.634;2022-12-08T07:36:30;99666.47;;;10.27;100.00
34712;BME280;20941;42.408;25.634;2022-12-08T07:38:57;99656.91;;;10.28;100.00
34712;BME280;20941;42.408;25.634;2022-12-08T07:41:24;99664.28;;;10.43;100.00
34712;BME280;20941;42.408;25.634;2022-12-08T07:43:50;99661.53;;;10.57;99.60
34712;BME280;20941;42.408;25.634;2022-12-08T07:46:19;99680.09;;;10.72;98.48
34712;BME280;20941;42.408;25.634;2022-12-08T07:48:45;99656.31;;;10.64;97.17
34712;BME280;20941;42.408;25.634;2022-12-08T07:51:12;99663.22;;;10.86;96.85
34712;BME280;20941;42.408;25.634;2022-12-08T07:53:40;99688.44;;;10.91;96.62
34712;BME280;20941;42.408;25.634;2022-12-08T07:56:07;99687.31;;;10.92;96.51
34712;BME280;20941;42.408;25.634;2022-12-08T07:58:33;99692.72;;;10.88;96.52
34712;BME280;20941;42.408;25.634;2022-12-08T08:00:59;99680.97;;;11.00;96.22
34712;BME280;20941;42.408;25.634;2022-12-08T08:03:24;99691.00;;;11.06;95.79
34712;BME280;20941;42.408;25.634;2022-12-08T08:05:50;99671.19;;;10.98;95.08
34712;BME280;20941;42.408;25.634;2022-12-08T08:08:16;99675.56;;;11.18;95.37
34712;BME280;20941;42.408;25.634;2022-12-08T08:10:42;99669.75;;;11.28;94.95
34712;BME280;20941;42.408;25.634;2022-12-08T08:13:08;99647.44;;;11.32;93.07
34712;BME280;20941;42.408;25.634;2022-12-08T08:15:33;99674.84;;;11.54;92.14
34712;BME280;20941;42.408;25.634;2022-12-08T08:17:59;99625.84;;;11.27;90.72
34712;BME280;20941;42.408;25.634;2022-12-08T08:20:25;99697.03;;;11.69;90.95
34712;BME280;20941;42.408;25.634;2022-12-08T08:22:50;99706.41;;;11.79;92.09
34712;BME280;20941;42.408;25.634;2022-12-08T08:25:18;99647.81;;;11.53;91.40
34712;BME280;20941;42.408;25.634;2022-12-08T08:27:45;99700.97;;;11.68;92.45
34712;BME280;20941;42.408;25.634;2022-12-08T08:30:12;99697.66;;;11.52;92.75
34712;BME280;20941;42.408;25.634;2022-12-08T08:32:38;99670.25;;;11.44;92.45
34712;BME280;20941;42.408;25.634;2022-12-08T08:35:04;99673.81;;;11.22;92.94
34712;BME280;20941;42.408;25.634;2022-12-08T08:37:29;99697.25;;;11.59;93.71
34712;BME280;20941;42.408;25.634;2022-12-08T08:39:55;99668.03;;;11.55;92.38
34712;BME280;20941;42.408;25.634;2022-12-08T08:42:21;99679.81;;;11.57;92.31
34712;BME280;20941;42.408;25.634;2022-12-08T08:44:47;99652.38;;;11.63;92.74
34712;BME280;20941;42.408;25.634;2022-12-08T08:47:12;99676.00;;;12.03;91.36
34712;BME280;20941;42.408;25.634;2022-12-08T08:49:38;99672.69;;;12.24;90.46
34712;BME280;20941;42.408;25.634;2022-12-08T08:52:04;99667.13;;;12.56;88.55
34712;BME280;20941;42.408;25.634;2022-12-08T08:54:30;99661.06;;;12.71;85.74
34712;BME280;20941;42.408;25.634;2022-12-08T08:56:56;99640.22;;;12.81;84.41
34712;BME280;20941;42.408;25.634;2022-12-08T08:59:22;99635.31;;;12.95;81.61
34712;BME280;20941;42.408;25.634;2022-12-08T09:01:48;99670.00;;;13.27;81.31
34712;BME280;20941;42.408;25.634;2022-12-08T09:04:13;99633.44;;;13.22;80.35
34712;BME280;20941;42.408;25.634;2022-12-08T09:06:39;99666.75;;;13.43;79.19
34712;BME280;20941;42.408;25.634;2022-12-08T09:09:04;99656.31;;;13.52;79.94
34712;BME280;20941;42.408;25.634;2022-12-08T09:11:31;99640.31;;;13.47;77.96
34712;BME280;20941;42.408;25.634;2022-12-08T09:13:57;99645.34;;;13.10;78.45
34712;BME280;20941;42.408;25.634;2022-12-08T09:16:23;99657.41;;;13.02;80.28
34712;BME280;20941;42.408;25.634;2022-12-08T09:18:48;99649.31;;;13.09;78.83
34712;BME280;20941;42.408;25.634;2022-12-08T09:21:17;99655.81;;;13.10;79.64
34712;BME280;20941;42.408;25.634;2022-12-08T09:23:49;99639.28;;;12.94;79.32
34712;BME280;20941;42.408;25.634;2022-12-08T09:26:15;99637.97;;;13.00;79.32
34712;BME280;20941;42.408;25.634;2022-12-08T09:28:41;99627.97;;;13.26;79.24
34712;BME280;20941;42.408;25.634;2022-12-08T09:31:13;99635.63;;;13.34;78.60
34712;BME280;20941;42.408;25.634;2022-12-08T09:33:39;99627.41;;;13.15;78.85
34712;BME280;20941;42.408;25.634;2022-12-08T09:36:05;99604.22;;;12.87;78.67
34712;BME280;20941;42.408;25.634;2022-12-08T09:38:31;99637.25;;;12.86;78.95
34712;BME280;20941;42.408;25.634;2022-12-08T09:40:57;99630.97;;;12.89;78.01
34712;BME280;20941;42.408;25.634;2022-12-08T09:43:50;99639.00;;;13.05;78.82
34712;BME280;20941;42.408;25.634;2022-12-08T09:46:19;99640.22;;;12.81;79.05
34712;BME280;20941;42.408;25.634;2022-12-08T09:48:53;99632.25;;;12.51;80.66
34712;BME280;20941;42.408;25.634;2022-12-08T09:51:23;99633.91;;;12.52;82.05
34712;BME280;20941;42.408;25.634;2022-12-08T09:53:53;99630.31;;;12.61;80.76
34712;BME280;20941;42.408;25.634;2022-12-08T09:56:25;99633.38;;;12.73;80.93
34712;BME280;20941;42.408;25.634;2022-12-08T09:59:03;99635.75;;;12.89;80.20
34712;BME280;20941;42.408;25.634;2022-12-08T10:01:35;99618.78;;;13.20;79.30
34712;BME280;20941;42.408;25.634;2022-12-08T10:07:17;99623.25;;;13.53;75.83
34712;BME280;20941;42.408;25.634;2022-12-08T10:12:29;99615.31;;;13.81;73.69
34712;BME280;20941;42.408;25.634;2022-12-08T10:17:46;99588.69;;;13.82;73.99
34712;BME280;20941;42.408;25.634;2022-12-08T10:22:43;99596.16;;;13.52;73.71
34712;BME280;20941;42.408;25.634;2022-12-08T10:25:17;99591.50;;;13.64;74.93
34712;BME280;20941;42.408;25.634;2022-12-08T10:27:48;99593.50;;;13.73;74.90
34712;BME280;20941;42.408;25.634;2022-12-08T10:30:17;99576.72;;;13.59;74.32
34712;BME280;20941;42.408;25.634;2022-12-08T10:32:51;99582.03;;;13.78;74.34
34712;BME280;20941;42.408;25.634;2022-12-08T10:35:18;99583.22;;;13.94;73.45
34712;BME280;20941;42.408;25.634;2022-12-08T10:37:55;99579.22;;;13.95;73.64
34712;BME280;20941;42.408;25.634;2022-12-08T10:40:22;99574.72;;;13.94;73.01
34712;BME280;20941;42.408;25.634;2022-12-08T10:42:51;99574.22;;;13.92;73.57
34712;BME280;20941;42.408;25.634;2022-12-08T10:50:52;99541.31;;;13.53;73.29
34712;BME280;20941;42.408;25.634;2022-12-08T11:00:59;99551.38;;;13.27;76.52
34712;BME280;20941;42.408;25.634;2022-12-08T11:03:38;99545.06;;;13.30;76.17
34712;BME280;20941;42.408;25.634;2022-12-08T11:06:16;99549.91;;;13.47;75.69
34712;BME280;20941;42.408;25.634;2022-12-08T11:08:48;99517.31;;;13.32;74.76
34712;BME280;20941;42.408;25.634;2022-12-08T11:11:14;99529.63;;;13.37;74.88
34712;BME280;20941;42.408;25.634;2022-12-08T11:13:41;99542.63;;;13.46;75.38
34712;BME280;20941;42.408;25.634;2022-12-08T11:16:07;99559.59;;;13.55;75.62
34712;BME280;20941;42.408;25.634;2022-12-08T11:18:42;99549.09;;;13.56;75.39
34712;BME280;20941;42.408;25.634;2022-12-08T11:21:18;99546.44;;;13.59;75.87
34712;BME280;20941;42.408;25.634;2022-12-08T11:23:49;99544.97;;;13.88;75.97
34712;BME280;20941;42.408;25.634;2022-12-08T11:26:29;99541.94;;;14.02;74.76
34712;BME280;20941;42.408;25.634;2022-12-08T11:28:56;99525.78;;;13.32;76.12
34712;BME280;20941;42.408;25.634;2022-12-08T11:31:42;99536.47;;;13.53;75.54
34712;BME280;20941;42.408;25.634;2022-12-08T11:34:19;99532.66;;;13.40;75.85
34712;BME280;20941;42.408;25.634;2022-12-08T11:36:48;99533.66;;;13.62;76.09
34712;BME280;20941;42.408;25.634;2022-12-08T11:39:14;99514.53;;;13.68;75.50
34712;BME280;20941;42.408;25.634;2022-12-08T11:41:42;99508.41;;;13.83;75.60
34712;BME280;20941;42.408;25.634;2022-12-08T11:44:37;99526.66;;;14.03;74.77
34712;BME280;20941;42.408;25.634;2022-12-08T11:47:11;99512.53;;;13.94;73.35
34712;BME280;20941;42.408;25.634;2022-12-08T11:49:40;99522.34;;;13.97;72.76
34712;BME280;20941;42.408;25.634;2022-12-08T11:52:10;99527.63;;;14.07;73.31
34712;BME280;20941;42.408;25.634;2022-12-08T11:54:49;99498.88;;;13.96;73.84
34712;BME280;20941;42.408;25.634;2022-12-08T11:57:16;99512.50;;;14.12;73.94
34712;BME280;20941;42.408;25.634;2022-12-08T11:59:50;99525.84;;;14.03;74.10
34712;BME280;20941;42.408;25.634;2022-12-08T12:02:22;99514.34;;;13.90;73.73
34712;BME280;20941;42.408;25.634;2022-12-08T12:05:08;99481.44;;;13.68;74.86
34712;BME280;20941;42.408;25.634;2022-12-08T12:07:45;99490.25;;;13.84;75.29
34712;BME280;20941;42.408;25.634;2022-12-08T12:16:14;99511.53;;;13.90;75.52
34712;BME280;20941;42.408;25.634;2022-12-08T12:18:50;99500.03;;;13.87;75.59
34712;BME280;20941;42.408;25.634;2022-12-08T12:21:21;99495.56;;;13.77;76.40
34712;BME280;20941;42.408;25.634;2022-12-08T12:23:54;99494.25;;;13.83;76.34
34712;BME280;20941;42.408;25.634;2022-12-08T12:26:27;99507.88;;;13.90;75.92
34712;BME280;20941;42.408;25.634;2022-12-08T12:28:59;99511.34;;;14.04;75.83
34712;BME280;20941;42.408;25.634;2022-12-08T12:31:28;99507.56;;;13.74;76.51
34712;BME280;20941;42.408;25.634;2022-12-08T12:34:24;99483.41;;;13.06;79.27
34712;BME280;20941;42.408;25.634;2022-12-08T12:39:14;99506.69;;;13.21;79.34
34712;BME280;20941;42.408;25.634;2022-12-08T12:41:51;99502.53;;;13.36;78.90
34712;BME280;20941;42.408;25.634;2022-12-08T12:49:49;99518.38;;;13.54;79.27
34712;BME280;20941;42.408;25.634;2022-12-08T12:54:44;99506.72;;;13.56;78.71
34712;BME280;20941;42.408;25.634;2022-12-08T12:57:36;99516.03;;;13.65;78.34
34712;BME280;20941;42.408;25.634;2022-12-08T13:18:36;99513.50;;;13.28;80.23
34712;BME280;20941;42.408;25.634;2022-12-08T13:23:47;99516.50;;;13.32;80.57
34712;BME280;20941;42.408;25.634;2022-12-08T13:31:46;99506.63;;;12.94;84.29
34712;BME280;20941;42.408;25.634;2022-12-08T13:39:23;99505.59;;;12.81;85.99
34712;BME280;20941;42.408;25.634;2022-12-08T13:42:02;99500.84;;;12.59;87.49
34712;BME280;20941;42.408;25.634;2022-12-08T13:44:36;99516.72;;;12.78;88.03
34712;BME280;20941;42.408;25.634;2022-12-08T13:47:05;99497.38;;;12.62;88.13
34712;BME280;20941;42.408;25.634;2022-12-08T13:49:41;99518.84;;;12.81;88.39
34712;BME280;20941;42.408;25.634;2022-12-08T13:52:32;99518.66;;;12.68;88.95
34712;BME280;20941;42.408;25.634;2022-12-08T13:55:02;99509.97;;;12.56;89.46
34712;BME280;20941;42.408;25.634;2022-12-08T13:57:33;99486.06;;;12.54;90.23
34712;BME280;20941;42.408;25.634;2022-12-08T14:00:14;99516.53;;;12.74;89.78
34712;BME280;20941;42.408;25.634;2022-12-08T14:02:41;99525.97;;;12.70;90.62
34712;BME280;20941;42.408;25.634;2022-12-08T14:05:09;99505.81;;;12.54;90.54
34712;BME280;20941;42.408;25.634;2022-12-08T14:07:35;99489.28;;;12.29;91.07
34712;BME280;20941;42.408;25.634;2022-12-08T14:10:07;99511.53;;;12.40;91.69
34712;BME280;20941;42.408;25.634;2022-12-08T14:12:34;99517.47;;;12.29;92.74
34712;BME280;20941;42.408;25.634;2022-12-08T14:15:04;99534.63;;;12.10;95.21
34712;BME280;20941;42.408;25.634;2022-12-08T14:17:31;99519.44;;;12.20;94.25
34712;BME280;20941;42.408;25.634;2022-12-08T14:22:50;99551.41;;;12.15;94.44
34712;BME280;20941;42.408;25.634;2022-12-08T14:25:17;99515.53;;;12.07;94.31
34712;BME280;20941;42.408;25.634;2022-12-08T14:27:44;99549.94;;;12.18;94.51
34712;BME280;20941;42.408;25.634;2022-12-08T14:35:33;99554.09;;;12.20;95.21
34712;BME280;20941;42.408;25.634;2022-12-08T14:38:03;99553.63;;;12.27;94.25
34712;BME280;20941;42.408;25.634;2022-12-08T14:40:39;99555.94;;;12.25;93.96
34712;BME280;20941;42.408;25.634;2022-12-08T14:48:20;99556.09;;;11.97;95.72
34712;BME280;20941;42.408;25.634;2022-12-08T14:53:43;99557.34;;;12.14;94.63
34712;BME280;20941;42.408;25.634;2022-12-08T14:58:36;99546.72;;;12.11;94.59
34712;BME280;20941;42.408;25.634;2022-12-08T15:01:01;99532.25;;;12.03;94.32
34712;BME280;20941;42.408;25.634;2022-12-08T15:03:30;99553.44;;;12.24;94.32